Time;durP1;ratioP1;P1;durP2;ratioP2;P2;SDS_P1;SDS_P2;PMS_P1;PMS_P2;Temp;Humidity;BMP_temperature;BMP_pressure;BME280_temperature;BME280_humidity;BME280_pressure;Samples;Min_cycle;Max_cycle;Signal;HPM_P1;HPM_P2
2023/06/16 00:01:35;;;;;;;27.30;18.10;;;;;;;20.53;68.83;99509.42;109279;1254;72590;-79
2023/06/16 00:04:08;;;;;;;26.90;18.00;;;;;;;20.49;68.93;99504.69;108945;1254;68764;-78
2023/06/16 00:06:37;;;;;;;28.30;17.30;;;;;;;20.45;69.10;99501.23;109067;1254;71104;-80
2023/06/16 00:09:04;;;;;;;29.80;17.80;;;;;;;20.51;69.08;99498.00;108854;1254;60912;-80
2023/06/16 00:11:33;;;;;;;25.20;17.00;;;;;;;20.56;69.08;99499.71;109518;1252;58767;-78
2023/06/16 00:14:00;;;;;;;24.90;17.50;;;;;;;20.55;69.23;99496.56;109505;1253;72642;-79
2023/06/16 00:16:27;;;;;;;25.30;19.60;;;;;;;20.52;69.44;99496.23;109337;1254;68700;-78
2023/06/16 00:18:57;;;;;;;30.20;19.20;;;;;;;20.51;69.48;99496.16;108080;1254;71104;-78
2023/06/16 00:21:27;;;;;;;27.70;19.20;;;;;;;20.48;69.55;99498.30;107813;1252;60406;-78
2023/06/16 00:23:55;;;;;;;26.00;18.80;;;;;;;20.44;69.63;99497.64;107869;1254;60349;-81
2023/06/16 00:26:23;;;;;;;26.20;18.80;;;;;;;20.39;69.83;99494.26;108240;1254;72924;-78
2023/06/16 00:28:50;;;;;;;28.30;18.30;;;;;;;20.37;70.04;99492.70;108613;1254;71025;-81
2023/06/16 00:31:18;;;;;;;31.70;19.60;;;;;;;20.34;70.03;99492.36;107002;1257;72334;-80
2023/06/16 00:33:46;;;;;;;28.00;20.10;;;;;;;20.30;70.12;99489.38;106584;1259;60508;-80
2023/06/16 00:36:15;;;;;;;30.40;17.90;;;;;;;20.26;70.24;99486.42;107577;1256;60004;-79
2023/06/16 00:38:43;;;;;;;31.70;19.50;;;;;;;20.31;70.21;99487.38;109271;1253;74715;-80
2023/06/16 00:41:11;;;;;;;28.70;19.30;;;;;;;20.34;70.26;99485.27;108549;1258;68856;-80
2023/06/16 00:43:38;;;;;;;29.30;20.30;;;;;;;20.25;70.46;99482.58;107273;1254;72884;-81
2023/06/16 00:46:09;;;;;;;28.50;20.00;;;;;;;20.15;70.73;99484.27;108437;1254;60539;-82
2023/06/16 00:48:37;;;;;;;29.90;21.50;;;;;;;20.11;70.97;99481.10;108613;1252;60330;-83
2023/06/16 00:51:05;;;;;;;27.70;19.10;;;;;;;20.06;70.97;99477.27;108258;1256;72382;-83
2023/06/16 00:53:32;;;;;;;30.50;20.50;;;;;;;20.03;71.24;99477.54;106885;1259;69158;-81
2023/06/16 00:56:00;;;;;;;29.50;21.20;;;;;;;19.98;71.39;99478.34;106379;1255;74580;-81
2023/06/16 00:58:28;;;;;;;28.30;20.70;;;;;;;19.92;71.49;99475.17;106009;1254;60889;-80
2023/06/16 01:00:55;;;;;;;28.00;19.40;;;;;;;19.93;71.55;99477.09;105957;1259;60597;-81
2023/06/16 01:03:23;;;;;;;33.00;20.40;;;;;;;19.94;71.71;99478.52;106116;1257;73818;-82
2023/06/16 01:05:56;;;;;;;27.50;19.40;;;;;;;19.88;71.93;99480.80;106173;1257;71109;-79
2023/06/16 01:08:44;;;;;;;31.90;21.00;;;;;;;19.81;72.28;99478.55;106636;1254;72474;-79
2023/06/16 01:11:50;;;;;;;27.40;20.40;;;;;;;19.76;72.46;99474.55;106403;1267;60428;-80
2023/06/16 01:14:43;;;;;;;29.50;20.60;;;;;;;19.70;72.79;99476.33;106516;1252;60527;-81
2023/06/16 01:17:11;;;;;;;32.70;20.80;;;;;;;19.59;72.88;99479.16;106174;1253;72642;-78
2023/06/16 01:19:49;;;;;;;27.30;19.30;;;;;;;19.50;73.26;99478.02;106844;1254;70058;-80
2023/06/16 01:22:47;;;;;;;26.30;20.20;;;;;;;19.52;73.34;99477.84;106911;1258;71447;-79
2023/06/16 01:25:15;;;;;;;28.10;20.10;;;;;;;19.52;73.56;99477.30;106556;1254;60638;-79
2023/06/16 01:27:47;;;;;;;27.90;20.10;;;;;;;19.47;73.76;99481.44;106132;1253;60485;-79
2023/06/16 01:30:15;;;;;;;34.00;22.10;;;;;;;19.43;73.98;99477.31;106235;1260;73795;-79
2023/06/16 01:32:44;;;;;;;29.50;19.80;;;;;;;19.41;74.30;99474.33;106898;1254;71372;-79
2023/06/16 01:35:12;;;;;;;29.40;20.00;;;;;;;19.38;74.43;99476.98;108845;1254;71433;-79
2023/06/16 01:37:39;;;;;;;25.60;19.50;;;;;;;19.34;74.65;99480.15;109154;1254;60504;-78
2023/06/16 01:40:08;;;;;;;33.40;20.40;;;;;;;19.40;74.61;99478.32;107820;1254;62291;-81
2023/06/16 01:42:35;;;;;;;26.90;20.70;;;;;;;19.47;74.62;99483.02;106897;1254;72607;-79
2023/06/16 01:45:03;;;;;;;26.90;19.30;;;;;;;19.42;74.83;99480.96;106356;1255;68260;-80
2023/06/16 01:47:30;;;;;;;29.00;20.30;;;;;;;19.35;75.03;99482.29;106376;1254;72950;-78
2023/06/16 01:49:58;;;;;;;30.30;20.20;;;;;;;19.28;75.34;99481.20;106379;1259;60424;-77
2023/06/16 01:52:26;;;;;;;31.50;19.40;;;;;;;19.20;75.53;99480.14;106994;1261;60351;-78
2023/06/16 01:54:53;;;;;;;28.30;19.40;;;;;;;19.16;75.90;99480.20;107714;1256;72584;-78
2023/06/16 01:57:21;;;;;;;28.50;20.80;;;;;;;19.18;76.01;99480.14;106923;1262;71066;-76
2023/06/16 02:00:03;;;;;;;24.00;19.80;;;;;;;19.19;76.15;99482.00;106039;1253;71455;-76
2023/06/16 02:02:43;;;;;;;26.60;19.50;;;;;;;19.13;76.45;99480.27;105983;1255;60926;-78
2023/06/16 02:05:11;;;;;;;28.60;21.10;;;;;;;19.07;76.77;99479.60;105790;1262;60310;-77
2023/06/16 02:07:41;;;;;;;30.70;21.50;;;;;;;19.01;76.96;99475.44;105890;1255;72903;-80
2023/06/16 02:10:10;;;;;;;28.60;20.40;;;;;;;18.95;77.17;99474.03;106082;1255;70437;-78
2023/06/16 02:12:37;;;;;;;29.50;19.80;;;;;;;18.89;77.45;99473.85;106818;1258;71664;-83
2023/06/16 02:15:07;;;;;;;31.80;21.10;;;;;;;18.89;77.65;99469.81;107423;1254;60381;-82
2023/06/16 02:17:34;;;;;;;27.60;19.40;;;;;;;18.92;77.78;99470.81;106663;1255;62592;-81
2023/06/16 02:20:05;;;;;;;26.60;19.40;;;;;;;18.87;78.03;99470.59;106409;1260;73778;-81
2023/06/16 02:22:34;;;;;;;30.40;20.80;;;;;;;18.81;78.43;99467.19;106766;1259;69453;-80
2023/06/16 02:25:02;;;;;;;29.00;20.10;;;;;;;18.75;78.81;99470.89;106731;1254;71487;-78
2023/06/16 02:27:30;;;;;;;26.20;19.50;;;;;;;18.72;79.10;99469.73;106776;1255;60517;-81
2023/06/16 02:29:57;;;;;;;29.10;20.90;;;;;;;18.78;79.04;99463.70;107684;1254;60399;-81
2023/06/16 02:32:26;;;;;;;26.40;20.40;;;;;;;18.88;78.89;99463.01;109121;1254;73840;-80
2023/06/16 02:34:56;;;;;;;32.30;21.10;;;;;;;18.91;78.96;99466.22;109142;1254;69092;-81
2023/06/16 02:37:25;;;;;;;32.00;20.60;;;;;;;18.97;78.94;99470.04;108837;1252;72453;-81
2023/06/16 02:39:55;;;;;;;30.80;22.10;;;;;;;19.01;78.81;99472.29;108224;1259;60524;-81
2023/06/16 02:42:23;;;;;;;30.20;21.80;;;;;;;19.04;78.80;99468.81;107491;1253;59245;-81
2023/06/16 02:44:50;;;;;;;31.20;21.60;;;;;;;19.08;78.50;99469.17;108512;1254;72801;-82
2023/06/16 02:47:18;;;;;;;27.70;20.50;;;;;;;19.18;78.48;99473.58;108382;1255;69968;-79
2023/06/16 02:49:46;;;;;;;31.80;21.30;;;;;;;19.28;78.25;99474.80;108579;1254;71395;-79
2023/06/16 02:52:14;;;;;;;28.80;22.40;;;;;;;19.33;78.13;99470.98;107905;1257;60442;-79
2023/06/16 02:54:42;;;;;;;27.90;21.00;;;;;;;19.36;77.91;99472.63;106655;1254;60335;-79
2023/06/16 02:57:11;;;;;;;31.00;22.40;;;;;;;19.36;77.75;99474.62;107867;1254;74071;-79
2023/06/16 02:59:44;;;;;;;29.70;21.30;;;;;;;19.38;77.77;99478.48;107707;1254;69766;-80
2023/06/16 03:02:12;;;;;;;35.90;23.20;;;;;;;19.37;77.65;99477.50;107002;1258;71229;-78
2023/06/16 03:05:01;;;;;;;26.30;19.40;;;;;;;19.47;77.59;99481.23;106125;1254;61706;-79
2023/06/16 03:07:34;;;;;;;28.50;20.40;;;;;;;19.54;77.43;99478.88;106176;1257;60424;-79
2023/06/16 03:10:03;;;;;;;32.60;22.00;;;;;;;19.56;77.45;99481.41;106314;1254;73085;-84
2023/06/16 03:12:40;;;;;;;29.40;21.40;;;;;;;19.58;77.46;99484.36;107104;1254;69216;-83
2023/06/16 03:15:08;;;;;;;32.20;22.90;;;;;;;19.59;77.37;99482.48;107198;1258;71386;-80
2023/06/16 03:17:37;;;;;;;34.40;22.70;;;;;;;19.61;77.44;99484.77;107475;1254;60606;-82
2023/06/16 03:20:07;;;;;;;30.00;21.50;;;;;;;19.72;77.34;99485.92;106737;1260;60360;-82
2023/06/16 03:22:44;;;;;;;29.80;22.50;;;;;;;19.80;77.09;99488.29;107387;1252;72460;-83
2023/06/16 03:25:12;;;;;;;32.10;23.30;;;;;;;19.79;77.08;99484.61;108082;1254;68716;-82
2023/06/16 03:27:43;;;;;;;42.70;23.40;;;;;;;19.78;77.21;99481.39;108729;1253;74742;-82
2023/06/16 03:30:15;;;;;;;32.40;23.80;;;;;;;19.80;77.21;99478.41;109458;1254;58796;-81
2023/06/16 03:32:52;;;;;;;32.60;22.60;;;;;;;19.81;77.13;99478.06;108286;1253;58782;-80
2023/06/16 03:35:20;;;;;;;28.90;21.40;;;;;;;19.89;77.08;99479.65;108140;1254;72642;-81
2023/06/16 03:37:47;;;;;;;35.40;23.30;;;;;;;19.97;76.99;99480.42;108364;1254;70734;-82
2023/06/16 03:40:17;;;;;;;33.80;23.80;;;;;;;20.01;76.96;99486.80;107779;1254;71375;-81
2023/06/16 03:42:46;;;;;;;29.10;23.00;;;;;;;20.05;77.03;99486.08;107811;1254;59391;-82
2023/06/16 03:45:14;;;;;;;36.10;23.80;;;;;;;20.07;77.02;99485.71;107869;1257;60363;-81
2023/06/16 03:47:42;;;;;;;37.40;23.70;;;;;;;20.13;77.08;99489.23;107164;1257;74011;-80
2023/06/16 03:50:10;;;;;;;37.40;24.50;;;;;;;20.29;76.79;99489.27;107147;1260;70286;-80
2023/06/16 03:52:41;;;;;;;37.00;25.10;;;;;;;20.43;76.54;99489.48;107242;1253;71588;-81
2023/06/16 03:55:08;;;;;;;35.80;24.30;;;;;;;20.52;76.42;99488.56;106661;1254;60527;-78
2023/06/16 03:57:37;;;;;;;34.50;24.30;;;;;;;20.59;76.09;99488.51;106821;1258;60334;-82
2023/06/16 04:00:09;;;;;;;34.70;26.80;;;;;;;20.67;75.89;99492.67;106118;1255;74056;-79
2023/06/16 04:02:48;;;;;;;36.00;25.50;;;;;;;20.76;75.55;99497.26;107170;1253;69497;-79
2023/06/16 04:05:24;;;;;;;41.50;27.60;;;;;;;20.83;75.30;99493.41;108424;1254;71757;-80
2023/06/16 04:07:57;;;;;;;35.40;25.70;;;;;;;20.93;75.27;99490.08;108342;1254;60547;-77
2023/06/16 04:10:25;;;;;;;40.70;26.10;;;;;;;21.11;74.84;99489.96;107535;1253;60413;-79
2023/06/16 04:12:53;;;;;;;35.60;26.10;;;;;;;21.26;74.37;99488.11;106712;1260;72522;-79
2023/06/16 04:15:24;;;;;;;38.00;25.30;;;;;;;21.33;74.08;99488.02;106209;1257;69180;-82
2023/06/16 04:17:52;;;;;;;35.50;27.00;;;;;;;21.40;73.92;99492.13;105862;1260;72459;-76
2023/06/16 04:20:21;;;;;;;33.50;24.60;;;;;;;21.49;73.58;99488.09;106338;1254;60405;-78
2023/06/16 04:22:49;;;;;;;37.00;25.50;;;;;;;21.57;73.16;99493.41;106446;1254;60345;-80
2023/06/16 04:25:18;;;;;;;33.10;24.10;;;;;;;21.66;73.07;99492.20;108028;1257;73818;-82
2023/06/16 04:27:49;;;;;;;37.60;24.90;;;;;;;21.71;72.73;99488.74;107672;1253;69374;-81
2023/06/16 04:30:22;;;;;;;33.90;24.00;;;;;;;21.76;72.49;99491.21;107730;1256;71120;-83
2023/06/16 04:32:50;;;;;;;39.40;25.30;;;;;;;21.91;72.10;99489.58;107846;1254;60670;-81
2023/06/16 04:35:21;;;;;;;33.90;21.80;;;;;;;22.07;71.92;99487.05;106520;1253;60296;-83
2023/06/16 04:37:48;;;;;;;32.50;21.40;;;;;;;22.19;71.70;99486.41;106084;1254;72187;-83
2023/06/16 04:40:17;;;;;;;28.60;22.30;;;;;;;22.31;71.20;99488.20;106148;1258;68867;-80
2023/06/16 04:42:47;;;;;;;28.90;21.00;;;;;;;22.45;70.83;99486.41;106208;1260;72195;-82
2023/06/16 04:45:15;;;;;;;30.90;20.20;;;;;;;22.60;70.32;99485.45;106124;1254;60555;-83
2023/06/16 04:47:44;;;;;;;29.10;19.50;;;;;;;22.73;69.84;99488.10;107314;1254;61065;-81
2023/06/16 04:50:13;;;;;;;28.70;20.30;;;;;;;22.86;69.86;99495.92;107666;1254;72290;-81
2023/06/16 04:52:41;;;;;;;30.30;20.10;;;;;;;23.00;69.60;99495.52;106284;1258;68685;-81
2023/06/16 04:55:08;;;;;;;26.90;17.10;;;;;;;23.14;69.20;99500.29;105750;1254;556559;-82
2023/06/16 04:59:32;;;;;;;20.80;15.50;;;;;;;23.33;68.55;99498.34;102727;1292;614217;-85
2023/06/16 05:02:00;;;;;;;24.30;15.80;;;;;;;23.43;67.95;99500.20;105082;1273;59153;-75
2023/06/16 05:04:27;;;;;;;19.60;15.20;;;;;;;23.50;67.47;99501.84;105094;1266;60272;-78
2023/06/16 05:06:54;;;;;;;23.90;15.10;;;;;;;23.57;67.16;99497.44;105216;1269;72015;-79
2023/06/16 05:09:21;;;;;;;20.70;15.20;;;;;;;23.62;66.94;99498.41;105383;1266;70354;-77
2023/06/16 05:11:48;;;;;;;17.40;15.30;;;;;;;23.67;66.98;99497.91;105462;1264;182109;-78
2023/06/16 05:14:15;;;;;;;21.20;15.30;;;;;;;23.72;66.79;99500.70;105555;1264;60718;-78
2023/06/16 05:16:42;;;;;;;18.70;14.20;;;;;;;23.76;66.71;99502.19;105407;1266;60248;-79
2023/06/16 05:19:10;;;;;;;22.10;15.50;;;;;;;23.80;66.63;99500.23;106195;1264;72267;-81
2023/06/16 05:21:42;;;;;;;;;;;;;;;23.88;66.04;99504.27;107076;1263;70371;-79
2023/06/16 05:24:10;;;;;;;18.50;14.00;;;;;;;24.00;65.79;99498.96;108810;1256;71904;-81
2023/06/16 05:26:38;;;;;;;16.00;14.10;;;;;;;24.15;65.36;99499.09;108467;1257;59110;-83
2023/06/16 05:29:05;;;;;;;20.20;13.50;;;;;;;24.24;64.57;99500.00;106811;1256;60125;-84
2023/06/16 05:31:34;;;;;;;15.10;11.50;;;;;;;24.31;63.93;99500.20;107066;1258;73202;-85
2023/06/16 05:34:01;;;;;;;15.10;11.90;;;;;;;24.38;63.58;99497.41;106274;1260;68778;-84
2023/06/16 05:36:31;;;;;;;13.70;10.80;;;;;;;24.42;63.55;99501.39;106542;1253;72799;-81
2023/06/16 05:38:58;;;;;;;17.40;12.60;;;;;;;24.46;63.49;99505.58;106498;1258;60650;-80
2023/06/16 05:41:26;;;;;;;25.40;13.90;;;;;;;24.49;63.79;99508.53;107870;1253;60357;-82
2023/06/16 05:43:57;;;;;;;17.50;12.40;;;;;;;24.53;63.99;99505.74;108741;1253;71580;-84
2023/06/16 05:46:24;;;;;;;15.20;11.50;;;;;;;24.59;63.84;99503.21;107682;1253;69187;-74
2023/06/16 05:48:52;;;;;;;17.00;10.80;;;;;;;24.65;63.52;99504.98;106507;1253;72484;-78
2023/06/16 05:51:18;;;;;;;12.80;9.10;;;;;;;24.69;62.94;99507.36;106119;1253;60186;-76
2023/06/16 05:53:46;;;;;;;16.50;9.60;;;;;;;24.68;62.18;99505.80;106129;1253;60203;-79
2023/06/16 05:56:12;;;;;;;15.40;8.90;;;;;;;24.67;61.82;99507.14;106307;1255;72966;-75
2023/06/16 05:58:40;;;;;;;11.50;8.80;;;;;;;24.67;61.70;99509.92;105845;1254;69045;-76
2023/06/16 06:01:07;;;;;;;16.90;9.80;;;;;;;24.67;61.64;99513.55;105693;1254;72829;-77
2023/06/16 06:03:35;;;;;;;14.20;8.70;;;;;;;24.68;60.84;99508.84;105922;1256;59683;-74
2023/06/16 06:06:04;;;;;;;12.20;7.10;;;;;;;24.66;59.94;99506.12;105780;1259;60132;-75
2023/06/16 06:08:32;;;;;;;9.90;6.20;;;;;;;24.74;58.95;99510.32;105723;1260;73038;-75
2023/06/16 06:11:01;;;;;;;15.50;6.80;;;;;;;24.80;58.24;99510.40;105651;1260;70432;-74
2023/06/16 06:13:29;;;;;;;9.20;6.80;;;;;;;24.92;57.56;99513.58;105740;1258;72576;-75
2023/06/16 06:15:56;;;;;;;12.00;6.20;;;;;;;25.08;56.77;99514.14;105980;1254;60216;-74
2023/06/16 06:18:23;;;;;;;11.30;6.20;;;;;;;25.24;55.67;99512.94;105586;1254;60183;-77
2023/06/16 06:20:50;;;;;;;11.00;6.20;;;;;;;25.36;54.68;99512.46;106053;1259;73131;-74
2023/06/16 06:23:18;;;;;;;11.90;5.30;;;;;;;25.46;53.38;99510.17;107013;1254;70194;-73
2023/06/16 06:25:45;;;;;;;10.60;5.00;;;;;;;25.48;51.55;99511.98;106258;1256;72809;-74
2023/06/16 06:28:15;;;;;;;11.10;4.70;;;;;;;25.40;51.68;99509.02;105883;1255;59624;-75
2023/06/16 06:30:42;;;;;;;8.90;4.30;;;;;;;25.30;50.62;99509.09;105896;1253;60270;-74
2023/06/16 06:33:09;;;;;;;12.60;5.40;;;;;;;25.15;50.69;99508.94;105656;1261;73993;-75
2023/06/16 06:35:35;;;;;;;9.30;4.90;;;;;;;25.03;51.57;99506.14;105907;1254;70324;-77
2023/06/16 06:38:04;;;;;;;8.50;5.30;;;;;;;25.04;52.10;99508.48;105866;1256;72024;-74
2023/06/16 06:40:32;;;;;;;10.40;4.70;;;;;;;25.06;51.54;99503.82;106097;1255;60668;-75
2023/06/16 06:43:00;;;;;;;10.30;5.00;;;;;;;25.06;50.97;99510.73;105689;1254;60020;-74
2023/06/16 06:45:37;;;;;;;10.10;5.00;;;;;;;25.01;50.63;99505.10;105821;1258;72877;-73
2023/06/16 06:48:04;;;;;;;14.30;5.30;;;;;;;24.96;50.43;99503.58;105710;1255;70174;-74
2023/06/16 06:50:32;;;;;;;11.30;5.20;;;;;;;24.91;50.66;99495.80;105864;1256;74016;-75
2023/06/16 06:52:58;;;;;;;11.20;5.60;;;;;;;24.93;51.00;99499.83;106142;1259;60270;-75
2023/06/16 06:55:25;;;;;;;14.20;5.50;;;;;;;24.99;51.15;99495.21;105805;1253;60142;-76
2023/06/16 06:57:52;;;;;;;9.30;5.20;;;;;;;25.07;51.27;99496.52;106138;1253;72886;-73
2023/06/16 07:00:19;;;;;;;9.90;5.10;;;;;;;25.16;51.43;99495.67;106774;1253;69091;-73
2023/06/16 07:02:47;;;;;;;12.50;5.20;;;;;;;25.25;51.43;99494.08;108011;1254;71439;-73
2023/06/16 07:05:14;;;;;;;13.90;5.30;;;;;;;25.34;51.46;99489.30;108096;1253;59659;-75
2023/06/16 07:07:41;;;;;;;9.50;5.40;;;;;;;25.43;51.26;99484.67;107013;1254;59521;-73
2023/06/16 07:10:10;;;;;;;9.70;4.90;;;;;;;25.50;51.15;99483.91;106509;1257;73025;-74
2023/06/16 07:12:37;;;;;;;7.20;5.20;;;;;;;25.55;51.19;99487.06;106338;1256;70413;-76
2023/06/16 07:15:04;;;;;;;10.20;4.90;;;;;;;25.59;50.99;99488.32;106503;1259;71173;-74
2023/06/16 07:17:33;;;;;;;10.90;5.00;;;;;;;25.63;50.51;99486.52;106181;1253;60460;-74
2023/06/16 07:20:01;;;;;;;9.30;4.80;;;;;;;25.66;50.35;99485.48;107018;1252;60180;-76
2023/06/16 07:22:28;;;;;;;10.60;5.40;;;;;;;25.72;50.38;99483.39;107543;1253;73125;-76
2023/06/16 07:24:54;;;;;;;8.90;5.30;;;;;;;25.79;50.15;99484.30;107330;1253;69314;-74
2023/06/16 07:27:22;;;;;;;8.60;4.70;;;;;;;25.85;49.58;99484.23;106241;1253;71610;-74
2023/06/16 07:29:48;;;;;;;7.30;4.60;;;;;;;25.82;49.05;99481.30;106119;1254;60036;-74
2023/06/16 07:32:15;;;;;;;7.70;4.70;;;;;;;25.86;48.81;99481.13;106120;1258;59819;-74
2023/06/16 07:34:42;;;;;;;9.80;4.10;;;;;;;25.88;48.20;99481.67;105879;1256;72905;-75
2023/06/16 07:37:08;;;;;;;10.80;5.20;;;;;;;25.89;48.10;99482.27;105992;1253;60331;-73
2023/06/16 07:39:36;;;;;;;8.50;4.80;;;;;;;25.91;47.87;99477.89;105853;1259;73657;-73
2023/06/16 07:42:03;;;;;;;9.80;5.00;;;;;;;25.89;47.94;99478.03;105889;1260;59664;-74
2023/06/16 07:44:30;;;;;;;7.20;4.50;;;;;;;25.89;48.11;99481.34;106015;1253;59301;-74
2023/06/16 07:47:06;;;;;;;9.70;4.90;;;;;;;25.91;47.90;99476.08;106167;1258;73696;-72
2023/06/16 07:49:37;;;;;;;8.90;4.30;;;;;;;25.93;47.69;99480.00;106253;1253;70333;-74
2023/06/16 07:52:04;;;;;;;10.40;4.20;;;;;;;25.96;47.46;99479.41;106407;1256;71187;-75
2023/06/16 07:54:31;;;;;;;7.50;4.40;;;;;;;25.98;46.99;99483.70;106499;1256;60287;-74
2023/06/16 07:56:58;;;;;;;11.40;4.80;;;;;;;26.01;46.64;99480.09;108802;1255;59136;-75
2023/06/16 07:59:26;;;;;;;5.70;4.00;;;;;;;26.04;46.57;99479.87;108964;1253;71664;-75
2023/06/16 08:01:53;;;;;;;8.40;4.00;;;;;;;26.10;46.25;99483.11;109019;1254;70643;-73
2023/06/16 08:04:20;;;;;;;5.80;4.60;;;;;;;26.15;46.16;99477.33;109012;1253;71280;-72
2023/06/16 08:06:48;;;;;;;7.70;4.30;;;;;;;26.21;46.32;99473.67;108955;1254;59793;-73
2023/06/16 08:09:15;;;;;;;8.20;4.30;;;;;;;26.29;46.43;99471.67;108381;1255;59111;-78
2023/06/16 08:11:42;;;;;;;9.90;4.00;;;;;;;26.39;46.55;99471.52;108172;1260;71813;-79
2023/06/16 08:14:09;;;;;;;6.80;4.40;;;;;;;26.47;46.80;99472.63;108437;1255;68684;-79
2023/06/16 08:16:36;;;;;;;6.40;4.20;;;;;;;26.59;46.99;99472.64;108950;1255;71390;-79
2023/06/16 08:19:03;;;;;;;7.70;4.60;;;;;;;26.70;46.84;99480.76;109235;1255;59369;-78
2023/06/16 08:21:29;;;;;;;7.70;5.40;;;;;;;26.80;46.43;99480.48;109290;1254;58859;-79
2023/06/16 08:23:56;;;;;;;6.80;4.60;;;;;;;26.87;46.55;99482.13;109207;1255;72019;-78
2023/06/16 08:26:24;;;;;;;8.40;4.50;;;;;;;26.94;46.71;99483.23;109001;1255;68814;-78
2023/06/16 08:28:55;;;;;;;8.30;4.80;;;;;;;26.98;46.50;99482.12;109337;1254;71530;-78
2023/06/16 08:31:22;;;;;;;9.30;4.80;;;;;;;27.01;46.54;99484.42;109240;1255;59076;-77
2023/06/16 08:33:54;;;;;;;8.70;4.40;;;;;;;27.07;45.89;99484.50;109016;1254;59303;-78
2023/06/16 08:36:23;;;;;;;6.50;5.30;;;;;;;27.19;45.93;99484.42;107170;1256;71559;-78
2023/06/16 08:38:52;;;;;;;11.70;4.80;;;;;;;27.39;45.86;99481.45;108469;1254;70082;-78
2023/06/16 08:41:19;;;;;;;8.30;5.00;;;;;;;27.61;45.36;99479.88;108747;1255;73210;-78
2023/06/16 08:43:50;;;;;;;10.40;5.10;;;;;;;27.80;45.20;99477.41;108158;1257;60298;-78
2023/06/16 08:46:18;;;;;;;7.10;5.30;;;;;;;28.04;44.80;99475.55;107885;1255;59107;-78
2023/06/16 08:48:45;;;;;;;7.10;4.70;;;;;;;28.30;44.36;99470.70;107868;1255;72258;-79
2023/06/16 08:51:14;;;;;;;7.70;4.90;;;;;;;28.56;43.61;99469.13;107308;1256;69514;-78
2023/06/16 08:53:41;;;;;;;8.10;5.30;;;;;;;28.80;43.22;99471.86;105993;1258;71471;-80
2023/06/16 08:56:09;;;;;;;12.80;4.90;;;;;;;29.05;42.69;99474.44;105583;1255;60246;-79
2023/06/16 08:58:37;;;;;;;6.80;4.60;;;;;;;29.29;42.00;99469.75;105777;1255;61328;-78
2023/06/16 09:01:06;;;;;;;6.50;4.50;;;;;;;29.53;41.89;99464.64;105806;1256;73215;-78
2023/06/16 09:03:34;;;;;;;6.20;4.70;;;;;;;29.81;41.41;99460.59;105615;1256;70414;-78
2023/06/16 09:06:02;;;;;;;5.50;4.90;;;;;;;29.97;40.70;99466.20;105719;1258;73319;-77
2023/06/16 09:08:29;;;;;;;5.70;4.70;;;;;;;30.06;40.85;99461.91;105632;1261;61095;-79
2023/06/16 09:10:56;;;;;;;5.30;4.80;;;;;;;30.23;40.82;99457.73;105640;1256;60435;-79
2023/06/16 09:13:24;;;;;;;5.40;4.50;;;;;;;30.50;40.57;99458.85;105537;1264;73130;-79
2023/06/16 09:15:56;;;;;;;5.60;4.60;;;;;;;30.78;40.15;99461.02;105594;1261;70337;-77
2023/06/16 09:18:24;;;;;;;9.80;4.80;;;;;;;31.04;39.34;99467.02;106630;1256;72473;-78
2023/06/16 09:20:52;;;;;;;8.20;4.40;;;;;;;31.08;38.71;99459.06;108335;1254;61381;-78
2023/06/16 09:23:29;;;;;;;6.20;4.60;;;;;;;31.21;38.63;99459.91;107374;1256;60461;-79
2023/06/16 09:25:56;;;;;;;5.50;4.70;;;;;;;31.64;38.64;99459.81;105981;1258;72654;-78
2023/06/16 09:28:34;;;;;;;5.60;4.20;;;;;;;32.19;37.64;99458.16;105775;1256;70339;-75
2023/06/16 09:31:05;;;;;;;6.10;4.90;;;;;;;32.67;37.22;99453.28;105741;1256;72527;-73
2023/06/16 09:33:39;;;;;;;9.60;4.80;;;;;;;33.10;36.57;99449.56;105673;1256;60563;-71
2023/06/16 09:36:07;;;;;;;6.00;4.30;;;;;;;33.31;36.19;99450.09;105858;1255;60563;-71
2023/06/16 09:38:37;;;;;;;7.00;4.60;;;;;;;33.54;35.94;99451.78;105442;1261;73876;-73
2023/06/16 09:41:09;;;;;;;6.10;4.80;;;;;;;33.92;35.69;99448.88;105598;1261;68804;-70
2023/06/16 09:43:39;;;;;;;5.80;4.60;;;;;;;34.39;34.80;99435.88;105834;1256;72813;-74
2023/06/16 09:46:09;;;;;;;6.30;4.50;;;;;;;34.76;34.35;99434.85;105796;1258;60826;-74
2023/06/16 09:48:47;;;;;;;10.20;4.30;;;;;;;35.03;33.91;99437.01;105623;1263;60545;-71
2023/06/16 09:51:17;;;;;;;7.30;4.10;;;;;;;35.30;33.54;99435.58;105850;1261;65252;-74
2023/06/16 09:53:45;;;;;;;6.60;4.20;;;;;;;35.60;32.80;99427.00;105621;1261;60460;-74
2023/06/16 09:56:16;;;;;;;6.20;4.60;;;;;;;35.89;32.65;99424.65;105753;1260;63707;-76
2023/06/16 09:58:44;;;;;;;5.90;4.90;;;;;;;36.27;32.38;99422.77;105697;1256;60523;-76
2023/06/16 10:01:13;;;;;;;9.00;4.70;;;;;;;36.61;32.34;99424.36;105719;1256;60403;-76
2023/06/16 10:03:41;;;;;;;7.70;4.40;;;;;;;36.81;32.00;99418.70;105784;1256;64062;-78
2023/06/16 10:06:14;;;;;;;9.30;4.40;;;;;;;36.73;32.01;99421.39;105695;1255;63251;-78
2023/06/16 10:08:41;;;;;;;7.10;4.50;;;;;;;36.51;31.76;99424.61;105472;1263;64069;-76
2023/06/16 10:11:10;;;;;;;5.80;4.00;;;;;;;36.16;31.96;99422.13;105688;1255;60497;-76
2023/06/16 10:13:38;;;;;;;5.90;4.70;;;;;;;36.07;32.29;99420.95;105697;1255;60547;-78
2023/06/16 10:16:05;;;;;;;7.40;4.60;;;;;;;36.34;32.36;99415.16;105935;1255;65194;-72
2023/06/16 10:18:32;;;;;;;7.80;4.30;;;;;;;36.82;32.08;99410.57;106933;1256;60418;-73
2023/06/16 10:20:59;;;;;;;9.40;3.80;;;;;;;37.25;31.57;99404.41;106942;1255;64042;-76
2023/06/16 10:23:26;;;;;;;6.50;4.30;;;;;;;37.57;31.14;99409.59;105729;1261;60565;-76
2023/06/16 10:25:52;;;;;;;6.40;4.20;;;;;;;37.81;30.75;99408.21;105575;1264;60446;-74
2023/06/16 10:28:20;;;;;;;7.50;4.20;;;;;;;38.20;30.00;99405.46;105768;1261;65010;-75
2023/06/16 10:30:48;;;;;;;5.20;3.80;;;;;;;38.52;29.85;99403.72;105720;1255;62914;-75
2023/06/16 10:33:28;;;;;;;4.30;3.80;;;;;;;38.88;29.55;99400.71;105907;1256;64056;-77
2023/06/16 10:35:56;;;;;;;6.20;4.10;;;;;;;39.07;29.29;99401.89;105780;1256;61024;-75
2023/06/16 10:38:42;;;;;;;6.30;3.90;;;;;;;39.24;28.90;99397.05;105701;1256;60344;-77
2023/06/16 10:41:14;;;;;;;9.30;4.90;;;;;;;39.43;28.87;99386.20;105748;1261;65432;-75
2023/06/16 10:43:41;;;;;;;5.70;4.30;;;;;;;39.62;28.65;99391.21;105691;1262;61788;-75
2023/06/16 10:46:16;;;;;;;7.40;4.40;;;;;;;39.56;28.60;99388.26;105801;1255;64854;-84
2023/06/16 10:48:56;;;;;;;7.30;4.70;;;;;;;39.32;28.94;99388.55;106199;1259;60443;-81
2023/06/16 10:51:40;;;;;;;6.80;4.00;;;;;;;39.40;28.71;99384.80;106128;1261;60249;-82
2023/06/16 10:54:08;;;;;;;6.10;4.20;;;;;;;39.56;28.36;99381.10;105856;1261;63870;-77
2023/06/16 10:57:01;;;;;;;6.80;4.60;;;;;;;39.70;28.41;99380.85;105914;1259;61810;-77
2023/06/16 10:59:51;;;;;;;7.90;4.50;;;;;;;39.89;28.39;99373.99;108196;1255;62619;-81
2023/06/16 11:02:18;;;;;;;4.80;4.30;;;;;;;40.19;27.97;99375.48;108611;1255;59204;-77
2023/06/16 11:05:08;;;;;;;6.00;4.50;;;;;;;40.51;27.18;99369.92;107106;1260;60415;-75
2023/06/16 11:08:05;;;;;;;4.70;3.70;;;;;;;40.81;27.08;99363.61;105817;1258;65354;-75
2023/06/16 11:10:52;;;;;;;5.60;3.80;;;;;;;40.93;26.63;99360.80;105747;1254;61630;-73
2023/06/16 11:13:32;;;;;;;5.90;4.40;;;;;;;40.75;26.52;99360.02;106419;1259;62892;-73
2023/06/16 11:15:59;;;;;;;5.90;4.10;;;;;;;40.78;27.02;99355.84;106316;1256;60519;-76
2023/06/16 11:18:27;;;;;;;7.10;4.50;;;;;;;41.06;26.85;99356.70;105978;1256;60417;-74
2023/06/16 11:20:58;;;;;;;5.40;4.90;;;;;;;41.18;26.84;99353.64;105744;1260;65334;-77
2023/06/16 11:23:25;;;;;;;5.40;4.50;;;;;;;40.96;27.17;99348.49;105522;1264;60505;-76
2023/06/16 11:25:52;;;;;;;7.60;4.60;;;;;;;40.66;27.05;99350.86;105722;1258;62610;-76
2023/06/16 11:28:20;;;;;;;4.40;3.80;;;;;;;40.46;27.39;99354.28;105578;1260;60638;-75
2023/06/16 11:30:48;;;;;;;5.50;4.40;;;;;;;40.58;27.59;99357.13;105493;1256;60458;-77